createdAt,value
2018-12-12T00:00:41.026Z,7.03
2018-12-12T00:03:09.696Z,7.10
2018-12-12T00:05:38.516Z,7.04
2018-12-12T00:08:07.583Z,7.01
2018-12-12T00:10:36.859Z,6.89
2018-12-12T00:13:05.712Z,6.97
2018-12-12T00:15:34.484Z,6.99
2018-12-12T00:18:03.704Z,7.00
2018-12-12T00:20:33.142Z,6.99
2018-12-12T00:23:01.830Z,6.97
2018-12-12T00:25:30.619Z,6.97
2018-12-12T00:27:59.405Z,6.95
2018-12-12T00:30:28.692Z,6.92
2018-12-12T00:32:57.372Z,6.94
2018-12-12T00:35:26.207Z,6.94
2018-12-12T00:37:54.870Z,6.91
2018-12-12T00:40:25.780Z,6.91
2018-12-12T00:42:54.645Z,6.92
2018-12-12T00:45:24.537Z,6.82
2018-12-12T00:47:53.418Z,6.75
2018-12-12T00:50:22.263Z,6.82
2018-12-12T00:52:52.402Z,6.83
2018-12-12T00:55:21.052Z,6.70
2018-12-12T00:57:50.219Z,6.72
2018-12-12T01:00:19.600Z,6.75
2018-12-12T01:02:48.321Z,6.82
2018-12-12T01:05:17.120Z,6.79
2018-12-12T01:07:46.308Z,6.80
2018-12-12T01:10:15.205Z,6.69
2018-12-12T01:12:44.044Z,6.50
2018-12-12T01:15:12.785Z,6.44
2018-12-12T01:17:41.652Z,6.45
2018-12-12T01:20:11.054Z,6.39
2018-12-12T01:22:40.325Z,6.36
2018-12-12T01:25:10.272Z,6.39
2018-12-12T01:27:40.226Z,6.46
2018-12-12T01:30:09.277Z,6.41
2018-12-12T01:32:37.991Z,6.35
2018-12-12T01:35:06.855Z,6.39
2018-12-12T01:37:35.503Z,6.29
2018-12-12T01:40:05.208Z,6.37
2018-12-12T01:42:34.990Z,6.35
2018-12-12T01:45:03.833Z,6.44
2018-12-12T01:47:32.464Z,6.53
2018-12-12T01:50:01.330Z,6.56
2018-12-12T01:52:29.965Z,6.53
2018-12-12T01:54:58.601Z,6.59
2018-12-12T01:57:28.518Z,6.62
2018-12-12T01:59:57.302Z,6.54
2018-12-12T02:02:26.143Z,6.55
2018-12-12T02:04:55.005Z,6.59
2018-12-12T02:07:23.741Z,6.62
2018-12-12T02:09:53.602Z,6.59
2018-12-12T02:12:22.308Z,6.53
2018-12-12T02:14:50.961Z,6.55
2018-12-12T02:17:19.605Z,6.50
2018-12-12T02:19:48.483Z,6.49
2018-12-12T02:22:18.998Z,6.47
2018-12-12T02:24:47.620Z,6.47
2018-12-12T02:27:17.289Z,6.44
2018-12-12T02:29:45.900Z,6.44
2018-12-12T02:32:14.555Z,6.43
2018-12-12T02:34:43.389Z,6.45
2018-12-12T02:37:12.008Z,6.34
2018-12-12T02:39:40.844Z,6.29
2018-12-12T02:42:09.548Z,6.34
2018-12-12T02:44:38.279Z,6.38
2018-12-12T02:47:07.196Z,6.49
2018-12-12T02:49:36.113Z,6.46
2018-12-12T02:52:05.111Z,6.35
2018-12-12T02:54:33.840Z,6.39
2018-12-12T02:57:03.024Z,6.49
2018-12-12T02:59:31.695Z,6.54
2018-12-12T03:02:00.434Z,6.56
2018-12-12T03:04:29.337Z,6.50
2018-12-12T03:06:58.078Z,6.62
2018-12-12T03:09:26.699Z,6.57
2018-12-12T03:11:55.387Z,6.61
2018-12-12T03:14:24.039Z,6.57
2018-12-12T03:16:52.694Z,6.62
2018-12-12T03:19:21.584Z,6.70
2018-12-12T03:21:50.190Z,6.74
2018-12-12T03:24:18.856Z,6.77
2018-12-12T03:26:47.586Z,6.86
2018-12-12T03:29:17.322Z,6.86
2018-12-12T03:31:45.963Z,6.79
2018-12-12T03:34:14.726Z,6.83
2018-12-12T03:36:43.392Z,6.84
2018-12-12T03:39:12.056Z,6.90
2018-12-12T03:41:40.917Z,6.95
2018-12-12T03:44:09.651Z,6.89
2018-12-12T03:46:38.445Z,6.87
2018-12-12T03:49:07.235Z,6.83
2018-12-12T03:51:35.914Z,6.78
2018-12-12T03:54:04.625Z,6.81
2018-12-12T03:56:33.469Z,6.86
2018-12-12T03:59:08.732Z,6.83
2018-12-12T04:01:37.583Z,6.82
2018-12-12T04:04:06.334Z,6.81
2018-12-12T04:06:34.968Z,6.83
2018-12-12T04:09:04.733Z,6.88
2018-12-12T04:11:33.499Z,6.92
2018-12-12T04:14:02.184Z,6.73
2018-12-12T04:16:32.376Z,6.75
2018-12-12T04:19:01.958Z,6.72
2018-12-12T04:21:31.211Z,6.52
2018-12-12T04:24:00.287Z,6.49
2018-12-12T04:26:29.079Z,6.49
2018-12-12T04:28:58.546Z,6.47
2018-12-12T04:31:27.216Z,6.53
2018-12-12T04:33:55.810Z,6.56
2018-12-12T04:36:25.253Z,6.60
2018-12-12T04:38:56.592Z,6.66
2018-12-12T04:41:25.337Z,6.64
2018-12-12T04:43:54.840Z,6.66
2018-12-12T04:46:24.551Z,6.57
2018-12-12T04:48:55.960Z,6.75
2018-12-12T04:51:26.054Z,6.82
2018-12-12T04:53:54.764Z,6.90
2018-12-12T04:56:23.422Z,6.96
2018-12-12T04:58:52.891Z,6.99
2018-12-12T05:01:21.544Z,7.03
2018-12-12T05:03:50.872Z,6.96
2018-12-12T05:06:19.979Z,7.03
2018-12-12T05:08:48.760Z,7.09
2018-12-12T05:11:19.497Z,7.09
2018-12-12T05:13:48.364Z,7.10
2018-12-12T05:16:18.814Z,7.14
2018-12-12T05:18:48.132Z,7.19
2018-12-12T05:21:17.689Z,7.20
2018-12-12T05:23:47.408Z,7.22
2018-12-12T05:26:16.107Z,7.21
2018-12-12T05:28:44.830Z,7.17
2018-12-12T05:31:13.603Z,7.16
2018-12-12T05:33:42.335Z,7.17
2018-12-12T05:36:11.243Z,7.14
2018-12-12T05:38:39.871Z,7.12
2018-12-12T05:41:08.584Z,7.12
2018-12-12T05:43:38.127Z,7.07
2018-12-12T05:46:08.648Z,7.03
2018-12-12T05:48:37.436Z,6.98
2018-12-12T05:51:06.472Z,7.02
2018-12-12T05:53:36.133Z,6.89
2018-12-12T05:56:04.989Z,6.94
2018-12-12T05:58:33.756Z,7.03
2018-12-12T06:01:02.790Z,7.07
2018-12-12T06:03:32.078Z,7.07
2018-12-12T06:06:00.897Z,7.12
2018-12-12T06:08:30.344Z,7.11
2018-12-12T06:10:58.982Z,7.07
2018-12-12T06:13:29.052Z,7.09
2018-12-12T06:15:57.722Z,7.06
2018-12-12T06:18:27.343Z,7.09
2018-12-12T06:20:56.325Z,7.07
2018-12-12T06:23:26.383Z,7.06
2018-12-12T06:25:55.072Z,7.13
2018-12-12T06:28:24.019Z,7.16
2018-12-12T06:30:52.703Z,7.12
2018-12-12T06:33:22.037Z,7.08
2018-12-12T06:35:50.832Z,7.07
2018-12-12T06:38:19.689Z,6.96
2018-12-12T06:40:48.474Z,6.99
2018-12-12T06:43:18.683Z,7.08
2018-12-12T06:45:47.812Z,7.03
2018-12-12T06:48:17.564Z,7.03
2018-12-12T06:50:46.356Z,7.06
2018-12-12T06:53:15.327Z,7.04
2018-12-12T06:55:45.135Z,7.01
2018-12-12T06:58:14.688Z,6.95
2018-12-12T07:00:44.447Z,6.92
2018-12-12T07:03:13.175Z,6.97
2018-12-12T07:05:42.566Z,6.89
2018-12-12T07:08:11.310Z,6.91
2018-12-12T07:10:42.660Z,6.94
2018-12-12T07:13:11.718Z,6.91
2018-12-12T07:15:40.458Z,6.89
2018-12-12T07:18:09.232Z,6.92
2018-12-12T07:20:38.142Z,6.94
2018-12-12T07:23:09.629Z,6.91
2018-12-12T07:25:38.786Z,6.87
2018-12-12T07:28:09.728Z,6.93
2018-12-12T07:30:39.667Z,6.91
2018-12-12T07:33:08.511Z,6.93
2018-12-12T07:35:38.291Z,6.86
2018-12-12T07:38:07.671Z,6.82
2018-12-12T07:40:36.441Z,6.87
2018-12-12T07:43:05.120Z,6.88
2018-12-12T07:45:34.609Z,6.88
2018-12-12T07:48:03.926Z,6.95
2018-12-12T07:50:33.077Z,6.94
2018-12-12T07:53:01.991Z,6.94
2018-12-12T07:55:31.771Z,6.99
2018-12-12T07:58:02.518Z,7.01
2018-12-12T08:00:32.382Z,7.06
2018-12-12T08:03:06.318Z,7.05
2018-12-12T08:05:35.332Z,7.12
2018-12-12T08:08:04.312Z,7.18
2018-12-12T08:10:33.374Z,7.25
2018-12-12T08:13:02.274Z,7.17
2018-12-12T08:15:31.537Z,7.16
2018-12-12T08:18:00.146Z,7.10
2018-12-12T08:20:28.939Z,7.17
2018-12-12T08:22:58.473Z,7.07
2018-12-12T08:25:27.846Z,6.99
2018-12-12T08:27:57.359Z,7.05
2018-12-12T08:30:27.710Z,7.03
2018-12-12T08:32:56.607Z,7.13
2018-12-12T08:35:25.386Z,7.15
2018-12-12T08:37:54.201Z,7.16
2018-12-12T08:40:22.836Z,7.20
2018-12-12T08:42:51.686Z,7.19
2018-12-12T08:45:20.411Z,7.23
2018-12-12T08:47:49.160Z,7.28
2018-12-12T08:50:17.948Z,7.33
2018-12-12T08:52:46.664Z,7.34
2018-12-12T08:55:17.789Z,7.31
2018-12-12T08:57:46.397Z,7.37
2018-12-12T09:00:15.508Z,7.37
2018-12-12T09:02:45.262Z,7.34
2018-12-12T09:05:14.777Z,7.41
2018-12-12T09:07:44.265Z,7.45
2018-12-12T09:10:13.307Z,7.49
2018-12-12T09:12:43.601Z,7.54
2018-12-12T09:15:13.503Z,7.48
2018-12-12T09:17:42.576Z,7.51
2018-12-12T09:20:13.784Z,7.55
2018-12-12T09:22:43.089Z,7.52
2018-12-12T09:25:12.640Z,7.44
2018-12-12T09:27:42.020Z,7.59
2018-12-12T09:30:11.092Z,7.61
2018-12-12T09:32:40.525Z,7.59
2018-12-12T09:35:11.058Z,7.57
2018-12-12T09:37:39.994Z,7.65
2018-12-12T09:40:10.696Z,7.64
2018-12-12T09:42:39.566Z,7.62
2018-12-12T09:45:09.258Z,7.52
2018-12-12T09:47:38.398Z,7.57
2018-12-12T09:50:07.361Z,7.54
2018-12-12T09:52:37.023Z,7.48
2018-12-12T09:55:06.120Z,7.53
2018-12-12T09:57:34.799Z,7.38
2018-12-12T10:00:05.021Z,7.42
2018-12-12T10:02:33.700Z,7.48
2018-12-12T10:05:02.401Z,7.52
2018-12-12T10:07:32.041Z,7.52
2018-12-12T10:10:00.747Z,7.51
2018-12-12T10:12:29.397Z,7.51
2018-12-12T10:14:58.959Z,7.55
2018-12-12T10:17:30.603Z,7.54
2018-12-12T10:20:00.144Z,7.48
2018-12-12T10:22:31.930Z,7.44
2018-12-12T10:25:00.644Z,7.49
2018-12-12T10:27:29.648Z,7.55
2018-12-12T10:29:58.303Z,7.62
2018-12-12T10:32:26.957Z,7.60
2018-12-12T10:34:55.807Z,7.57
2018-12-12T10:37:24.467Z,7.64
2018-12-12T10:39:53.256Z,7.66
2018-12-12T10:42:22.215Z,7.79
2018-12-12T10:44:51.909Z,7.67
2018-12-12T10:47:22.360Z,7.72
2018-12-12T10:49:51.252Z,7.69
2018-12-12T10:52:20.037Z,7.63
2018-12-12T10:54:49.847Z,7.63
2018-12-12T10:57:18.911Z,7.70
2018-12-12T10:59:48.351Z,7.77
2018-12-12T11:02:23.513Z,7.58
2018-12-12T11:04:53.432Z,7.70
2018-12-12T11:07:22.151Z,7.86
2018-12-12T11:09:50.867Z,7.85
2018-12-12T11:12:19.607Z,7.85
2018-12-12T11:14:49.311Z,7.90
2018-12-12T11:17:19.681Z,7.79
2018-12-12T11:19:48.456Z,7.65
2018-12-12T11:22:18.298Z,7.66
2018-12-12T11:24:49.004Z,7.79
2018-12-12T11:27:18.970Z,7.84
2018-12-12T11:29:48.346Z,7.78
2018-12-12T11:32:18.312Z,7.83
2018-12-12T11:34:47.999Z,7.94
2018-12-12T11:37:16.788Z,8.00
2018-12-12T11:39:46.528Z,8.06
2018-12-12T11:42:16.486Z,8.02
2018-12-12T11:44:45.436Z,8.10
2018-12-12T11:47:14.811Z,8.06
2018-12-12T11:49:43.663Z,8.14
2018-12-12T11:52:12.519Z,8.03
2018-12-12T11:54:41.528Z,8.10
2018-12-12T11:57:10.640Z,8.12
2018-12-12T11:59:39.386Z,8.18
2018-12-12T12:02:08.188Z,8.14
2018-12-12T12:04:39.785Z,8.16
2018-12-12T12:07:09.249Z,8.18
2018-12-12T12:09:38.681Z,8.15
2018-12-12T12:12:08.801Z,7.93
2018-12-12T12:14:37.626Z,7.79
2018-12-12T12:17:07.090Z,7.81
2018-12-12T12:19:36.058Z,7.82
2018-12-12T12:22:04.984Z,7.84
2018-12-12T12:24:33.716Z,7.82
2018-12-12T12:27:03.669Z,7.94
2018-12-12T12:29:33.952Z,7.89
2018-12-12T12:32:03.835Z,7.66
2018-12-12T12:34:32.507Z,7.69
2018-12-12T12:37:02.055Z,7.61
2018-12-12T12:39:30.819Z,7.68
2018-12-12T12:41:59.571Z,7.75
2018-12-12T12:44:28.397Z,7.69
2018-12-12T12:46:57.310Z,7.63
2018-12-12T12:49:26.963Z,7.50
2018-12-12T12:51:55.744Z,7.61
2018-12-12T12:54:24.471Z,7.70
2018-12-12T12:56:53.160Z,7.60
2018-12-12T12:59:23.003Z,7.67
2018-12-12T13:01:52.267Z,7.71
2018-12-12T13:04:22.960Z,7.63
2018-12-12T13:06:52.350Z,7.64
2018-12-12T13:09:21.240Z,7.78
2018-12-12T13:11:50.199Z,7.64
2018-12-12T13:14:19.118Z,7.42
2018-12-12T13:16:49.038Z,7.56
2018-12-12T13:19:18.417Z,7.57
2018-12-12T13:21:47.658Z,7.49
2018-12-12T13:24:16.667Z,7.58
2018-12-12T13:26:53.201Z,7.59
2018-12-12T13:29:18.744Z,7.51
2018-12-12T13:31:49.633Z,7.53
2018-12-12T13:34:18.404Z,7.59
2018-12-12T13:36:47.825Z,7.67
2018-12-12T13:39:17.501Z,7.75
2018-12-12T13:41:46.203Z,7.78
2018-12-12T13:44:15.218Z,7.82
2018-12-12T13:46:43.943Z,7.73
2018-12-12T13:49:13.161Z,7.70
2018-12-12T13:51:43.043Z,7.74
2018-12-12T13:54:12.009Z,7.77
2018-12-12T13:56:40.926Z,7.71
2018-12-12T13:59:10.968Z,7.64
2018-12-12T14:01:40.318Z,7.71
2018-12-12T14:04:09.089Z,7.63
2018-12-12T14:06:37.994Z,7.71
2018-12-12T14:09:07.577Z,7.70
2018-12-12T14:11:36.255Z,7.66
2018-12-12T14:14:05.019Z,7.70
2018-12-12T14:16:33.807Z,7.56
2018-12-12T14:19:02.550Z,7.53
2018-12-12T14:21:31.328Z,7.54
2018-12-12T14:24:00.734Z,7.66
2018-12-12T14:26:29.396Z,7.66
2018-12-12T14:28:59.482Z,7.59
2018-12-12T14:31:29.125Z,7.56
2018-12-12T14:33:57.851Z,7.52
2018-12-12T14:36:26.783Z,7.40
2018-12-12T14:38:55.570Z,7.36
2018-12-12T14:41:24.311Z,7.37
2018-12-12T14:43:53.307Z,7.37
2018-12-12T14:46:21.974Z,7.41
2018-12-12T14:48:50.713Z,7.40
2018-12-12T14:51:19.572Z,7.37
2018-12-12T14:53:48.420Z,7.32
2018-12-12T14:56:18.613Z,7.43
2018-12-12T14:58:48.738Z,7.42
2018-12-12T15:01:20.830Z,7.40
2018-12-12T15:03:50.173Z,7.41
2018-12-12T15:06:19.804Z,7.48
2018-12-12T15:08:48.545Z,7.36
2018-12-12T15:11:18.595Z,7.24
2018-12-12T15:13:47.575Z,7.19
2018-12-12T15:16:17.192Z,7.21
2018-12-12T15:18:46.001Z,7.02
2018-12-12T15:21:15.598Z,6.93
2018-12-12T15:23:44.910Z,6.92
2018-12-12T15:26:13.824Z,6.87
2018-12-12T15:28:42.742Z,6.83
2018-12-12T15:31:12.891Z,6.80
2018-12-12T15:33:41.727Z,6.78
2018-12-12T15:36:11.445Z,6.69
2018-12-12T15:38:41.436Z,6.62
2018-12-12T15:41:12.150Z,6.55
2018-12-12T15:43:41.144Z,6.58
2018-12-12T15:46:09.863Z,6.57
2018-12-12T15:48:38.855Z,6.44
2018-12-12T15:51:07.505Z,6.39
2018-12-12T15:53:36.228Z,6.29
2018-12-12T15:56:05.579Z,6.24
2018-12-12T15:58:35.936Z,6.22
2018-12-12T16:01:04.765Z,6.24
2018-12-12T16:03:33.744Z,6.20
2018-12-12T16:06:02.405Z,6.19
2018-12-12T16:08:31.068Z,6.17
2018-12-12T16:10:59.880Z,6.07
2018-12-12T16:13:29.442Z,6.00
2018-12-12T16:15:58.119Z,6.03
2018-12-12T16:18:26.951Z,5.94
2018-12-12T16:20:55.599Z,5.84
2018-12-12T16:23:25.308Z,5.86
2018-12-12T16:25:54.076Z,5.83
2018-12-12T16:28:23.480Z,5.78
2018-12-12T16:30:53.722Z,5.76
2018-12-12T16:33:23.108Z,5.75
2018-12-12T16:35:52.593Z,5.67
2018-12-12T16:38:22.195Z,5.61
2018-12-12T16:40:51.560Z,5.64
2018-12-12T16:43:20.328Z,5.58
2018-12-12T16:45:49.170Z,5.52
2018-12-12T16:48:18.912Z,5.50
2018-12-12T16:50:48.739Z,5.51
2018-12-12T16:53:17.469Z,5.54
2018-12-12T16:55:47.143Z,5.62
2018-12-12T16:58:16.465Z,5.62
2018-12-12T17:00:45.763Z,5.54
2018-12-12T17:03:14.711Z,5.56
2018-12-12T17:05:43.502Z,5.55
2018-12-12T17:08:12.157Z,5.51
2018-12-12T17:10:43.636Z,5.57
2018-12-12T17:13:14.528Z,5.56
2018-12-12T17:15:45.513Z,5.68
2018-12-12T17:18:14.914Z,5.61
2018-12-12T17:20:43.641Z,5.47
2018-12-12T17:23:13.858Z,5.52
2018-12-12T17:25:42.565Z,5.55
2018-12-12T17:28:13.407Z,5.62
2018-12-12T17:30:42.422Z,5.64
2018-12-12T17:33:11.255Z,5.70
2018-12-12T17:35:40.999Z,5.67
2018-12-12T17:38:11.355Z,5.58
2018-12-12T17:40:40.281Z,5.52
2018-12-12T17:43:10.233Z,5.53
2018-12-12T17:45:39.221Z,5.55
2018-12-12T17:48:07.948Z,5.51
2018-12-12T17:50:38.043Z,5.51
2018-12-12T17:53:07.565Z,5.62
2018-12-12T17:55:38.239Z,5.59
2018-12-12T17:58:08.232Z,5.63
2018-12-12T18:00:38.503Z,5.65
2018-12-12T18:03:07.135Z,5.54
2018-12-12T18:05:37.219Z,5.65
2018-12-12T18:08:06.140Z,5.75
2018-12-12T18:10:35.746Z,5.69
2018-12-12T18:13:05.522Z,5.76
2018-12-12T18:15:35.111Z,5.69
2018-12-12T18:18:04.985Z,5.66
2018-12-12T18:20:34.371Z,5.70
2018-12-12T18:23:03.970Z,5.73
2018-12-12T18:25:33.301Z,5.67
2018-12-12T18:28:02.546Z,5.65
2018-12-12T18:30:32.174Z,5.59
2018-12-12T18:33:00.888Z,5.51
2018-12-12T18:35:31.136Z,5.59
2018-12-12T18:38:01.982Z,5.55
2018-12-12T18:40:30.799Z,5.60
2018-12-12T18:43:00.348Z,5.65
2018-12-12T18:45:29.245Z,5.68
2018-12-12T18:47:58.680Z,5.69
2018-12-12T18:50:28.228Z,5.69
2018-12-12T18:52:57.057Z,5.73
2018-12-12T18:55:26.703Z,5.83
2018-12-12T18:57:56.540Z,5.74
2018-12-12T19:00:26.757Z,5.73
2018-12-12T19:02:57.555Z,5.74
2018-12-12T19:05:28.433Z,5.71
2018-12-12T19:07:57.359Z,5.80
2018-12-12T19:10:27.536Z,5.82
2018-12-12T19:12:56.618Z,5.81
2018-12-12T19:15:26.790Z,5.75
2018-12-12T19:17:55.730Z,5.76
2018-12-12T19:20:25.699Z,5.73
2018-12-12T19:22:54.363Z,5.71
2018-12-12T19:25:23.603Z,5.68
2018-12-12T19:27:53.927Z,5.56
2018-12-12T19:30:22.717Z,5.62
2018-12-12T19:32:51.535Z,5.60
2018-12-12T19:35:21.726Z,5.69
2018-12-12T19:37:51.349Z,5.83
2018-12-12T19:40:20.106Z,5.79
2018-12-12T19:42:50.862Z,6.00
2018-12-12T19:45:19.593Z,5.95
2018-12-12T19:47:48.951Z,5.77
2018-12-12T19:50:17.937Z,5.70
2018-12-12T19:52:48.512Z,5.57
2018-12-12T19:55:17.325Z,5.52
2018-12-12T19:57:46.189Z,5.48
2018-12-12T20:00:14.885Z,5.56
2018-12-12T20:02:43.767Z,5.53
2018-12-12T20:05:12.785Z,5.55
2018-12-12T20:07:42.362Z,5.64
2018-12-12T20:10:11.904Z,5.71
2018-12-12T20:12:41.373Z,5.73
2018-12-12T20:15:14.921Z,5.70
2018-12-12T20:17:45.096Z,5.75
2018-12-12T20:20:14.577Z,5.74
2018-12-12T20:22:43.799Z,5.78
2018-12-12T20:25:13.152Z,5.80
2018-12-12T20:27:42.483Z,5.75
2018-12-12T20:30:12.004Z,5.71
2018-12-12T20:32:41.351Z,5.67
2018-12-12T20:35:11.269Z,5.56
2018-12-12T20:37:40.947Z,5.49
2018-12-12T20:40:11.033Z,5.42
2018-12-12T20:42:41.134Z,5.31
2018-12-12T20:45:10.689Z,5.35
2018-12-12T20:47:40.284Z,5.35
2018-12-12T20:50:09.428Z,5.26
2018-12-12T20:52:38.782Z,5.21
2018-12-12T20:55:09.008Z,5.17
2018-12-12T20:57:39.718Z,5.11
2018-12-12T21:00:09.761Z,5.10
2018-12-12T21:02:39.363Z,5.01
2018-12-12T21:05:08.612Z,5.05
2018-12-12T21:07:37.653Z,4.97
2018-12-12T21:10:07.113Z,4.98
2018-12-12T21:12:36.692Z,5.07
2018-12-12T21:15:08.330Z,5.01
2018-12-12T21:17:38.144Z,5.14
2018-12-12T21:20:08.930Z,5.26
2018-12-12T21:22:37.995Z,5.34
2018-12-12T21:25:08.181Z,5.40
2018-12-12T21:27:37.670Z,5.54
2018-12-12T21:30:07.990Z,5.59
2018-12-12T21:32:37.311Z,5.71
2018-12-12T21:35:07.584Z,5.75
2018-12-12T21:37:36.528Z,5.73
2018-12-12T21:40:06.650Z,5.79
2018-12-12T21:42:35.530Z,5.81
2018-12-12T21:45:05.242Z,5.78
2018-12-12T21:47:34.868Z,5.77
2018-12-12T21:50:05.824Z,5.74
2018-12-12T21:52:34.765Z,5.66
2018-12-12T21:55:03.670Z,5.65
2018-12-12T21:57:32.989Z,5.71
2018-12-12T22:00:04.459Z,5.87
2018-12-12T22:02:34.147Z,5.87
2018-12-12T22:05:04.788Z,5.86
2018-12-12T22:07:36.330Z,6.00
2018-12-12T22:10:07.674Z,6.03
2018-12-12T22:12:38.213Z,5.94
2018-12-12T22:15:08.841Z,6.05
2018-12-12T22:17:41.785Z,6.00
2018-12-12T22:20:10.715Z,5.85
2018-12-12T22:22:40.764Z,5.83
2018-12-12T22:25:11.252Z,5.73
2018-12-12T22:27:41.248Z,5.64
2018-12-12T22:30:13.144Z,5.65
2018-12-12T22:32:43.387Z,5.72
2018-12-12T22:35:14.633Z,5.62
2018-12-12T22:37:44.101Z,5.59
2018-12-12T22:40:12.804Z,5.50
2018-12-12T22:42:41.882Z,5.29
2018-12-12T22:45:11.789Z,5.37
2018-12-12T22:47:40.682Z,5.31
2018-12-12T22:50:10.489Z,5.38
2018-12-12T22:52:40.538Z,5.41
2018-12-12T22:55:10.110Z,5.45
2018-12-12T22:57:40.017Z,5.36
2018-12-12T23:00:10.563Z,5.38
2018-12-12T23:02:41.453Z,5.43
2018-12-12T23:05:10.537Z,5.38
2018-12-12T23:07:49.183Z,5.38
2018-12-12T23:10:18.610Z,5.31
2018-12-12T23:12:48.092Z,5.43
2018-12-12T23:15:17.705Z,5.56
2018-12-12T23:17:47.597Z,5.57
2018-12-12T23:20:17.103Z,5.59
2018-12-12T23:22:47.819Z,5.52
2018-12-12T23:25:17.671Z,5.57
2018-12-12T23:27:48.000Z,5.55
2018-12-12T23:30:17.865Z,5.50
2018-12-12T23:32:48.149Z,5.63
2018-12-12T23:35:17.977Z,5.59
2018-12-12T23:37:47.791Z,5.57
2018-12-12T23:40:17.052Z,5.63
2018-12-12T23:42:46.067Z,5.75
2018-12-12T23:45:15.423Z,5.78
2018-12-12T23:47:44.665Z,5.82
2018-12-12T23:50:14.478Z,5.86
2018-12-12T23:52:43.673Z,5.93
2018-12-12T23:55:12.711Z,6.01
2018-12-12T23:57:42.772Z,6.06
